createdAt,value
2019-06-20T00:00:53.007Z,19.86
2019-06-20T00:01:53.042Z,19.81
2019-06-20T00:02:53.083Z,19.74
2019-06-20T00:03:53.111Z,19.74
2019-06-20T00:04:53.147Z,19.74
2019-06-20T00:05:53.182Z,19.71
2019-06-20T00:06:53.217Z,19.81
2019-06-20T00:07:53.256Z,19.78
2019-06-20T00:08:53.491Z,19.83
2019-06-20T00:09:53.374Z,19.78
2019-06-20T00:10:53.359Z,19.83
2019-06-20T00:11:53.423Z,19.78
2019-06-20T00:13:00.474Z,19.83
2019-06-20T00:13:53.464Z,19.81
2019-06-20T00:14:53.497Z,19.77
2019-06-20T00:15:53.735Z,19.74
2019-06-20T00:16:53.569Z,19.74
2019-06-20T00:17:53.604Z,19.66
2019-06-20T00:18:53.640Z,19.68
2019-06-20T00:19:53.674Z,19.71
2019-06-20T00:20:53.709Z,19.71
2019-06-20T00:21:54.073Z,19.78
2019-06-20T00:22:54.035Z,19.73
2019-06-20T00:23:53.840Z,19.77
2019-06-20T00:24:55.091Z,19.81
2019-06-20T00:42:06.452Z,19.66
2019-06-20T00:55:30.620Z,19.48
2019-06-20T01:01:30.098Z,19.41
2019-06-20T01:02:30.742Z,19.41
2019-06-20T01:11:08.652Z,19.28
2019-06-20T01:28:30.793Z,19.11
2019-06-20T01:35:59.884Z,19.26
2019-06-20T02:03:06.531Z,19.02
2019-06-20T02:07:07.097Z,18.88
2019-06-20T02:26:03.671Z,19.18
2019-06-20T03:01:09.897Z,19.54
2019-06-20T03:43:35.734Z,18.90
2019-06-20T03:46:35.835Z,18.80
2019-06-20T03:48:36.011Z,18.82
2019-06-20T03:49:36.450Z,18.88
2019-06-20T03:50:35.974Z,18.87
2019-06-20T03:52:35.840Z,18.88
2019-06-20T03:53:36.183Z,18.85
2019-06-20T03:54:35.908Z,18.88
2019-06-20T03:55:36.145Z,18.78
2019-06-20T03:56:35.981Z,18.80
2019-06-20T03:58:36.024Z,18.73
2019-06-20T04:00:36.095Z,18.60
2019-06-20T04:01:36.128Z,18.58
2019-06-20T04:02:36.163Z,18.55
2019-06-20T04:03:36.220Z,18.45
2019-06-20T04:04:37.877Z,18.51
2019-06-20T04:05:36.265Z,18.45
2019-06-20T04:06:36.350Z,18.45
2019-06-20T04:07:36.559Z,18.48
2019-06-20T04:08:37.010Z,18.44
2019-06-20T04:21:32.812Z,18.37
2019-06-20T04:30:25.954Z,18.44
2019-06-20T04:34:25.487Z,18.44
2019-06-20T04:35:25.523Z,18.47
2019-06-20T04:36:25.734Z,18.52
2019-06-20T04:37:27.586Z,18.44
2019-06-20T04:38:25.620Z,18.54
2019-06-20T04:39:25.656Z,18.62
2019-06-20T04:40:25.692Z,18.60
2019-06-20T04:41:25.739Z,18.54
2019-06-20T04:45:01.695Z,18.65
2019-06-20T04:46:02.017Z,18.67
2019-06-20T04:47:01.995Z,18.69
2019-06-20T04:48:02.179Z,18.65
2019-06-20T04:49:01.784Z,18.69
2019-06-20T04:52:21.702Z,18.78
2019-06-20T05:02:44.642Z,18.99
2019-06-20T05:03:44.883Z,19.02
2019-06-20T05:04:44.750Z,19.02
2019-06-20T05:05:44.925Z,19.07
2019-06-20T05:06:44.782Z,19.16
2019-06-20T05:07:44.818Z,19.14
2019-06-20T05:08:44.826Z,19.19
2019-06-20T05:12:10.748Z,19.29
2019-06-20T05:16:10.909Z,19.43
2019-06-20T05:17:11.125Z,19.56
2019-06-20T05:18:11.182Z,19.50
2019-06-20T05:19:10.991Z,19.59
2019-06-20T05:20:11.057Z,19.56
2019-06-20T05:21:11.060Z,19.74
2019-06-20T05:22:11.096Z,19.73
2019-06-20T05:23:11.129Z,19.80
2019-06-20T05:24:11.190Z,19.84
2019-06-20T05:25:11.206Z,19.96
2019-06-20T05:26:11.236Z,19.98
2019-06-20T05:27:11.270Z,19.98
2019-06-20T05:28:11.307Z,19.98
2019-06-20T05:29:11.392Z,19.98
2019-06-20T05:30:11.377Z,20.01
2019-06-20T05:31:11.412Z,20.05
2019-06-20T05:32:11.449Z,20.10
2019-06-20T05:33:11.484Z,20.10
2019-06-20T05:34:11.523Z,20.10
2019-06-20T05:35:11.556Z,20.03
2019-06-20T05:36:11.613Z,20.10
2019-06-20T05:37:11.625Z,20.11
2019-06-20T05:38:11.683Z,20.13
2019-06-20T05:39:11.693Z,20.13
2019-06-20T05:40:11.731Z,20.11
2019-06-20T05:41:11.786Z,20.02
2019-06-20T05:42:12.005Z,20.06
2019-06-20T05:43:11.858Z,20.08
2019-06-20T05:44:11.901Z,20.06
2019-06-20T05:46:12.148Z,19.96
2019-06-20T05:47:13.942Z,19.95
2019-06-20T05:48:12.039Z,19.96
2019-06-20T05:49:12.075Z,19.95
2019-06-20T05:50:13.300Z,19.99
2019-06-20T05:51:12.145Z,19.95
2019-06-20T05:52:12.584Z,19.99
2019-06-20T05:53:12.217Z,20.05
2019-06-20T05:56:12.525Z,20.01
2019-06-20T05:58:12.431Z,20.02
2019-06-20T05:59:12.749Z,20.03
2019-06-20T06:00:12.461Z,20.05
2019-06-20T06:02:12.578Z,20.10
2019-06-20T06:03:13.791Z,20.18
2019-06-20T06:04:12.600Z,20.24
2019-06-20T06:05:12.638Z,20.21
2019-06-20T06:06:12.650Z,20.32
2019-06-20T06:07:14.198Z,20.36
2019-06-20T06:08:12.725Z,20.41
2019-06-20T06:09:12.780Z,20.48
2019-06-20T06:10:12.798Z,20.52
2019-06-20T06:11:12.856Z,20.66
2019-06-20T06:12:12.862Z,20.69
2019-06-20T06:13:12.932Z,20.64
2019-06-20T06:14:13.878Z,20.70
2019-06-20T06:15:12.975Z,20.73
2019-06-20T06:16:25.707Z,20.79
2019-06-20T06:17:13.041Z,20.94
2019-06-20T06:18:14.127Z,20.99
2019-06-20T06:19:13.110Z,21.14
2019-06-20T06:20:13.351Z,21.27
2019-06-20T06:21:13.207Z,21.28
2019-06-20T06:22:13.218Z,21.29
2019-06-20T06:23:13.255Z,21.24
2019-06-20T06:24:13.329Z,21.37
2019-06-20T06:26:13.365Z,21.31
2019-06-20T06:27:13.427Z,21.25
2019-06-20T06:28:13.435Z,21.31
2019-06-20T06:29:13.473Z,21.32
2019-06-20T06:30:13.508Z,21.27
2019-06-20T06:31:13.563Z,21.28
2019-06-20T06:32:13.605Z,21.25
2019-06-20T06:33:13.844Z,21.22
2019-06-20T06:34:14.081Z,21.21
2019-06-20T06:40:39.689Z,21.38
2019-06-20T06:41:39.723Z,21.42
2019-06-20T06:43:41.915Z,21.72
2019-06-20T06:44:39.835Z,21.83
2019-06-20T06:46:47.295Z,22.15
2019-06-20T06:47:39.939Z,22.10
2019-06-20T06:48:40.000Z,22.10
2019-06-20T06:50:40.082Z,22.22
2019-06-20T06:51:40.111Z,22.31
2019-06-20T06:52:40.121Z,22.42
2019-06-20T06:53:40.158Z,22.43
2019-06-20T06:54:40.206Z,22.54
2019-06-20T06:56:40.500Z,22.85
2019-06-20T06:59:40.379Z,23.07
2019-06-20T07:00:40.416Z,23.04
2019-06-20T07:01:40.455Z,23.04
2019-06-20T07:02:40.494Z,22.95
2019-06-20T07:03:40.555Z,23.07
2019-06-20T07:04:40.586Z,22.92
2019-06-20T07:05:40.628Z,23.04
2019-06-20T07:06:40.663Z,23.10
2019-06-20T07:07:42.523Z,23.13
2019-06-20T07:15:41.806Z,23.40
2019-06-20T07:16:41.017Z,23.40
2019-06-20T07:18:41.089Z,23.76
2019-06-20T07:19:41.123Z,23.83
2019-06-20T07:20:41.161Z,23.94
2019-06-20T07:21:41.204Z,24.00
2019-06-20T07:22:41.238Z,24.00
2019-06-20T07:24:41.311Z,24.28
2019-06-20T07:26:41.386Z,24.35
2019-06-20T07:27:41.480Z,24.49
2019-06-20T07:28:42.474Z,24.58
2019-06-20T07:29:41.498Z,24.67
2019-06-20T07:30:41.539Z,24.64
2019-06-20T07:31:41.578Z,24.65
2019-06-20T07:32:41.613Z,24.57
2019-06-20T07:33:41.652Z,24.76
2019-06-20T07:34:41.691Z,24.68
2019-06-20T07:35:42.072Z,24.80
2019-06-20T07:36:41.996Z,24.80
2019-06-20T07:37:42.031Z,24.83
2019-06-20T07:39:41.880Z,24.71
2019-06-20T07:40:41.918Z,24.87
2019-06-20T07:41:41.957Z,24.90
2019-06-20T07:42:41.995Z,24.87
2019-06-20T07:43:42.032Z,24.96
2019-06-20T07:44:42.081Z,24.81
2019-06-20T07:45:42.109Z,24.77
2019-06-20T07:46:42.147Z,24.95
2019-06-20T07:48:42.223Z,25.06
2019-06-20T07:49:42.262Z,25.10
2019-06-20T07:50:43.036Z,24.95
2019-06-20T07:52:51.842Z,25.03
2019-06-20T07:53:42.747Z,25.13
2019-06-20T07:56:56.086Z,25.39
2019-06-20T07:57:55.397Z,25.38
2019-06-20T07:58:55.454Z,25.52
2019-06-20T08:00:55.536Z,25.60
2019-06-20T08:02:55.586Z,25.72
2019-06-20T08:03:55.623Z,25.64
2019-06-20T08:04:56.088Z,25.69
2019-06-20T08:06:55.952Z,25.85
2019-06-20T08:07:55.784Z,25.77
2019-06-20T08:08:55.816Z,25.80
2019-06-20T08:09:55.860Z,25.75
2019-06-20T08:10:55.896Z,25.76
2019-06-20T08:11:55.933Z,25.91
2019-06-20T08:12:55.972Z,25.92
2019-06-20T08:13:56.034Z,25.69
2019-06-20T08:14:56.379Z,25.57
2019-06-20T08:15:56.110Z,25.50
2019-06-20T08:18:56.205Z,25.38
2019-06-20T08:19:56.253Z,25.51
2019-06-20T08:20:56.307Z,25.50
2019-06-20T08:21:56.345Z,25.50
2019-06-20T08:22:56.386Z,25.60
2019-06-20T08:25:57.507Z,25.90
2019-06-20T08:27:57.793Z,26.05
2019-06-20T08:29:10.324Z,26.06
2019-06-20T08:29:57.877Z,25.99
2019-06-20T08:30:57.684Z,25.90
2019-06-20T08:31:57.978Z,25.79
2019-06-20T08:32:59.149Z,25.94
2019-06-20T08:33:57.703Z,26.06
2019-06-20T08:34:58.996Z,26.17
2019-06-20T08:35:57.512Z,26.35
2019-06-20T08:36:57.811Z,26.54
2019-06-20T08:37:57.808Z,26.72
2019-06-20T08:38:57.553Z,26.80
2019-06-20T08:39:58.372Z,26.84
2019-06-20T08:40:58.393Z,27.07
2019-06-20T08:41:58.915Z,27.21
2019-06-20T08:42:58.448Z,27.31
2019-06-20T08:43:58.461Z,27.29
2019-06-20T08:44:57.876Z,27.47
2019-06-20T08:45:57.857Z,27.59
2019-06-20T08:46:59.222Z,27.59
2019-06-20T08:47:58.310Z,27.69
2019-06-20T08:48:58.260Z,27.74
2019-06-20T09:01:57.987Z,28.31
2019-06-20T09:02:56.561Z,28.36
2019-06-20T09:03:56.705Z,28.52
2019-06-20T09:04:56.490Z,28.44
2019-06-20T09:05:56.622Z,28.51
2019-06-20T09:06:57.023Z,28.34
2019-06-20T09:07:57.183Z,28.19
2019-06-20T09:08:58.186Z,28.49
2019-06-20T09:09:55.860Z,28.64
2019-06-20T09:10:55.762Z,28.67
2019-06-20T09:11:56.529Z,28.61
2019-06-20T09:12:56.996Z,28.66
2019-06-20T09:13:57.035Z,28.49
2019-06-20T09:15:56.770Z,27.77
2019-06-20T09:17:41.761Z,27.79
2019-06-20T09:19:20.924Z,28.21
2019-06-20T09:21:13.542Z,28.14
2019-06-20T09:22:13.583Z,28.07
2019-06-20T09:23:13.623Z,28.40
2019-06-20T09:24:13.664Z,28.55
2019-06-20T09:25:13.713Z,28.76
2019-06-20T09:37:46.455Z,29.28
2019-06-20T09:38:46.520Z,29.42
2019-06-20T09:40:29.083Z,29.79
2019-06-20T09:41:29.123Z,29.94
2019-06-20T09:42:29.233Z,29.90
2019-06-20T09:43:31.828Z,29.57
2019-06-20T09:44:29.246Z,29.21
2019-06-20T09:45:29.286Z,29.18
2019-06-20T09:46:31.949Z,29.14
2019-06-20T09:47:29.366Z,29.16
2019-06-20T09:48:29.410Z,29.15
2019-06-20T09:49:29.459Z,29.05
2019-06-20T09:50:29.489Z,29.28
2019-06-20T09:51:29.529Z,29.23
2019-06-20T09:52:29.573Z,29.16
2019-06-20T09:53:29.612Z,29.16
2019-06-20T09:54:30.868Z,29.08
2019-06-20T09:55:29.713Z,28.93
2019-06-20T09:56:29.733Z,28.86
2019-06-20T09:57:29.775Z,28.86
2019-06-20T09:58:29.829Z,28.89
2019-06-20T09:59:29.855Z,28.96
2019-06-20T10:00:29.896Z,28.74
2019-06-20T10:01:29.937Z,28.93
2019-06-20T10:02:29.979Z,28.98
2019-06-20T10:03:30.022Z,28.95
2019-06-20T10:04:30.063Z,29.08
2019-06-20T10:05:30.101Z,29.16
2019-06-20T10:06:30.144Z,29.05
2019-06-20T10:07:30.187Z,29.26
2019-06-20T10:08:30.227Z,29.45
2019-06-20T10:09:30.264Z,29.48
2019-06-20T10:10:30.309Z,29.60
2019-06-20T10:11:30.348Z,29.95
2019-06-20T10:12:30.389Z,29.94
2019-06-20T10:13:32.649Z,29.94
2019-06-20T10:14:30.485Z,30.00
2019-06-20T10:15:30.564Z,30.10
2019-06-20T10:17:30.596Z,29.36
2019-06-20T10:18:30.652Z,29.14
2019-06-20T10:19:30.677Z,28.96
2019-06-20T10:20:30.718Z,28.92
2019-06-20T10:21:30.760Z,28.77
2019-06-20T10:22:30.801Z,29.09
2019-06-20T10:23:30.871Z,29.04
2019-06-20T10:24:30.883Z,29.28
2019-06-20T10:25:30.924Z,29.27
2019-06-20T10:26:30.980Z,29.09
2019-06-20T10:27:31.006Z,29.39
2019-06-20T10:28:31.052Z,28.89
2019-06-20T10:29:31.088Z,28.98
2019-06-20T10:30:31.132Z,28.44
2019-06-20T10:31:31.171Z,28.51
2019-06-20T10:32:31.212Z,28.48
2019-06-20T10:33:31.296Z,28.27
2019-06-20T10:34:31.307Z,28.22
2019-06-20T10:35:31.386Z,28.12
2019-06-20T10:36:31.377Z,27.92
2019-06-20T10:37:31.445Z,27.85
2019-06-20T10:38:31.482Z,27.84
2019-06-20T10:39:31.500Z,28.14
2019-06-20T10:40:31.540Z,28.43
2019-06-20T10:41:31.582Z,28.78
2019-06-20T10:42:31.660Z,28.89
2019-06-20T10:43:31.685Z,29.16
2019-06-20T10:44:31.730Z,29.39
2019-06-20T10:45:31.750Z,29.73
2019-06-20T10:46:31.785Z,29.61
2019-06-20T10:47:35.804Z,29.31
2019-06-20T10:48:31.874Z,29.42
2019-06-20T10:49:31.911Z,29.49
2019-06-20T10:51:14.568Z,29.15
2019-06-20T10:52:14.609Z,29.37
2019-06-20T10:53:14.651Z,29.67
2019-06-20T10:54:14.690Z,29.68
2019-06-20T10:55:14.733Z,30.08
2019-06-20T10:56:14.775Z,30.55
2019-06-20T10:57:14.816Z,30.70
2019-06-20T10:58:17.707Z,30.70
2019-06-20T10:59:15.102Z,30.60
2019-06-20T11:01:14.983Z,30.31
2019-06-20T11:02:15.027Z,30.31
2019-06-20T11:03:15.074Z,30.13
2019-06-20T11:04:15.340Z,30.15
2019-06-20T11:05:15.376Z,30.15
2019-06-20T11:08:15.504Z,30.37
2019-06-20T11:09:15.322Z,30.58
2019-06-20T11:10:15.363Z,30.23
2019-06-20T11:12:15.677Z,29.68
2019-06-20T11:13:16.120Z,29.68
2019-06-20T11:15:15.580Z,29.42
2019-06-20T11:16:15.629Z,28.92
2019-06-20T11:17:15.662Z,28.93
2019-06-20T11:18:15.707Z,28.81
2019-06-20T11:19:15.745Z,28.44
2019-06-20T11:20:15.789Z,27.97
2019-06-20T11:21:15.831Z,28.21
2019-06-20T11:22:15.873Z,28.22
2019-06-20T11:23:15.914Z,28.34
2019-06-20T11:24:15.955Z,28.66
2019-06-20T11:25:18.996Z,28.68
2019-06-20T11:26:16.040Z,28.92
2019-06-20T11:27:16.112Z,28.90
2019-06-20T11:28:16.127Z,28.89
2019-06-20T11:29:16.208Z,29.11
2019-06-20T11:30:16.238Z,29.00
2019-06-20T11:31:16.361Z,29.37
2019-06-20T11:32:16.297Z,29.30
2019-06-20T11:33:16.382Z,29.49
2019-06-20T11:34:16.378Z,29.52
2019-06-20T11:35:16.414Z,29.67
2019-06-20T11:36:16.458Z,29.48
2019-06-20T11:37:16.500Z,29.33
2019-06-20T11:38:16.539Z,29.06
2019-06-20T11:39:16.581Z,29.16
2019-06-20T11:40:16.624Z,29.15
2019-06-20T11:41:16.678Z,28.80
2019-06-20T11:42:16.715Z,28.62
2019-06-20T11:43:16.753Z,28.77
2019-06-20T11:44:16.788Z,28.95
2019-06-20T11:45:16.841Z,29.15
2019-06-20T11:46:16.870Z,28.95
2019-06-20T11:47:16.978Z,29.02
2019-06-20T11:48:16.956Z,29.14
2019-06-20T11:49:16.994Z,29.00
2019-06-20T11:50:17.035Z,28.85
2019-06-20T11:51:17.077Z,28.93
2019-06-20T11:52:17.118Z,28.92
2019-06-20T11:53:17.167Z,28.36
2019-06-20T11:54:17.199Z,27.92
2019-06-20T11:55:17.246Z,27.69
2019-06-20T11:56:17.287Z,27.87
2019-06-20T11:57:17.340Z,27.96
2019-06-20T11:58:17.366Z,27.97
2019-06-20T11:59:17.405Z,27.54
2019-06-20T12:00:17.832Z,27.57
2019-06-20T12:01:32.085Z,27.84
2019-06-20T12:02:17.525Z,27.59
2019-06-20T12:03:17.573Z,27.44
2019-06-20T12:04:17.608Z,27.43
2019-06-20T12:05:17.990Z,27.54
2019-06-20T12:06:17.913Z,27.63
2019-06-20T12:07:17.732Z,27.60
2019-06-20T12:08:17.769Z,27.92
2019-06-20T12:09:17.809Z,27.90
2019-06-20T12:10:17.925Z,28.14
2019-06-20T12:11:17.964Z,28.25
2019-06-20T12:12:17.973Z,28.31
2019-06-20T12:13:18.057Z,28.31
2019-06-20T12:14:18.089Z,28.24
2019-06-20T12:15:18.068Z,28.25
2019-06-20T12:16:18.143Z,28.46
2019-06-20T12:17:18.491Z,28.73
2019-06-20T12:18:18.217Z,29.05
2019-06-20T12:19:18.218Z,29.15
2019-06-20T12:20:18.286Z,29.33
2019-06-20T12:21:18.358Z,29.45
2019-06-20T12:22:18.386Z,29.68
2019-06-20T12:23:18.450Z,30.15
2019-06-20T12:24:18.438Z,30.43
2019-06-20T12:25:18.459Z,31.21
2019-06-20T12:26:18.524Z,31.25
2019-06-20T12:27:18.570Z,31.41
2019-06-20T12:28:18.668Z,31.68
2019-06-20T12:29:18.652Z,31.48
2019-06-20T12:30:18.666Z,31.26
2019-06-20T12:31:19.961Z,31.21
2019-06-20T12:32:18.748Z,30.99
2019-06-20T12:33:18.790Z,29.85
2019-06-20T12:34:18.843Z,29.65
2019-06-20T12:35:18.896Z,29.82
2019-06-20T12:36:18.916Z,29.82
2019-06-20T12:37:18.961Z,29.79
2019-06-20T12:38:19.001Z,29.86
2019-06-20T12:39:19.043Z,30.01
2019-06-20T12:40:19.087Z,30.38
2019-06-20T12:41:19.129Z,29.89
2019-06-20T12:42:19.176Z,30.32
2019-06-20T12:43:19.438Z,30.42
2019-06-20T12:49:19.712Z,30.24
2019-06-20T12:50:19.737Z,30.23
2019-06-20T12:52:20.432Z,30.08
2019-06-20T12:53:21.076Z,30.15
2019-06-20T12:54:21.194Z,29.74
2019-06-20T12:55:21.242Z,29.63
2019-06-20T12:56:21.079Z,29.67
2019-06-20T12:57:20.437Z,29.61
2019-06-20T12:58:19.877Z,29.55
2019-06-20T12:59:20.127Z,29.79
2019-06-20T13:00:20.369Z,30.10
2019-06-20T13:02:20.854Z,32.78
2019-06-20T13:03:20.592Z,32.28
2019-06-20T13:04:20.104Z,31.81
2019-06-20T13:05:20.144Z,31.25
2019-06-20T13:06:20.187Z,30.70
2019-06-20T13:07:20.230Z,30.70
2019-06-20T13:08:20.274Z,30.67
2019-06-20T13:09:20.338Z,30.75
2019-06-20T13:10:20.378Z,30.46
2019-06-20T13:11:20.400Z,30.45
2019-06-20T13:12:20.549Z,30.24
2019-06-20T13:13:20.504Z,30.34
2019-06-20T13:14:20.790Z,30.15
2019-06-20T13:15:20.644Z,30.15
2019-06-20T13:16:20.662Z,30.10
2019-06-20T13:17:20.694Z,29.73
2019-06-20T13:18:20.699Z,29.79
2019-06-20T13:19:20.737Z,29.55
2019-06-20T13:20:20.802Z,29.23
2019-06-20T13:21:20.821Z,28.85
2019-06-20T13:22:20.863Z,28.30
2019-06-20T13:23:20.906Z,28.25
2019-06-20T13:24:20.947Z,27.97
2019-06-20T13:25:20.988Z,27.90
2019-06-20T13:26:21.028Z,27.66
2019-06-20T13:27:21.070Z,27.57
2019-06-20T13:28:21.114Z,27.72
2019-06-20T13:29:21.155Z,27.77
2019-06-20T13:30:21.194Z,27.97
2019-06-20T13:31:21.235Z,28.14
2019-06-20T13:32:21.277Z,27.97
2019-06-20T13:33:21.355Z,27.97
2019-06-20T13:34:21.359Z,28.14
2019-06-20T13:35:21.398Z,28.02
2019-06-20T13:36:21.442Z,27.94
2019-06-20T13:37:21.482Z,27.96
2019-06-20T13:38:21.520Z,27.67
2019-06-20T13:39:21.561Z,27.67
2019-06-20T13:40:21.756Z,27.78
2019-06-20T13:41:21.644Z,27.93
2019-06-20T13:42:21.682Z,28.27
2019-06-20T13:43:21.723Z,30.05
2019-06-20T13:44:21.915Z,30.15
2019-06-20T13:45:21.805Z,29.92
2019-06-20T13:46:21.846Z,29.49
2019-06-20T13:47:21.889Z,29.27
2019-06-20T13:48:21.927Z,28.85
2019-06-20T13:49:21.968Z,28.44
2019-06-20T13:50:22.010Z,28.41
2019-06-20T13:51:22.049Z,28.30
2019-06-20T13:52:22.090Z,27.97
2019-06-20T13:53:22.343Z,26.75
2019-06-20T13:54:22.174Z,25.88
2019-06-20T13:55:22.218Z,25.64
2019-06-20T13:56:22.279Z,25.35
2019-06-20T13:57:22.318Z,25.24
2019-06-20T13:58:22.334Z,25.13
2019-06-20T13:59:22.375Z,25.18
2019-06-20T14:00:22.442Z,25.45
2019-06-20T14:01:22.455Z,25.57
2019-06-20T14:02:22.495Z,25.64
2019-06-20T14:03:22.540Z,25.67
2019-06-20T14:04:22.575Z,25.67
2019-06-20T14:05:22.625Z,25.47
2019-06-20T14:06:22.653Z,25.64
2019-06-20T14:07:22.695Z,25.65
2019-06-20T14:08:22.741Z,25.70
2019-06-20T14:09:22.772Z,25.69
2019-06-20T14:10:22.825Z,25.60
2019-06-20T14:11:22.853Z,25.57
2019-06-20T14:12:22.891Z,25.45
2019-06-20T14:13:22.929Z,25.38
2019-06-20T14:14:22.980Z,25.21
2019-06-20T14:15:23.007Z,25.17
2019-06-20T14:16:23.053Z,24.93
2019-06-20T14:17:23.085Z,24.98
2019-06-20T14:18:23.123Z,24.96
2019-06-20T14:19:23.165Z,24.98
2019-06-20T14:20:23.201Z,24.98
2019-06-20T14:21:23.239Z,24.93
2019-06-20T14:22:23.279Z,24.53
2019-06-20T14:23:23.317Z,23.79
2019-06-20T14:24:23.356Z,22.75
2019-06-20T14:25:23.496Z,22.09
2019-06-20T14:26:23.432Z,21.98
2019-06-20T14:27:23.470Z,22.39
2019-06-20T14:28:23.510Z,22.58
2019-06-20T14:29:23.546Z,23.01
2019-06-20T14:30:23.585Z,23.27
2019-06-20T14:31:23.628Z,23.17
2019-06-20T14:32:27.093Z,23.27
2019-06-20T14:33:23.706Z,23.40
2019-06-20T14:34:23.736Z,23.20
2019-06-20T14:35:23.775Z,22.22
2019-06-20T14:36:23.818Z,22.47
2019-06-20T14:37:23.872Z,22.80
2019-06-20T14:38:23.906Z,22.73
2019-06-20T14:39:23.926Z,23.69
2019-06-20T14:40:23.963Z,24.84
2019-06-20T14:41:24.004Z,26.45
2019-06-20T14:42:24.050Z,28.00
2019-06-20T14:43:24.080Z,28.71
2019-06-20T14:44:24.122Z,29.63
2019-06-20T14:45:24.238Z,30.01
2019-06-20T14:46:24.198Z,30.15
2019-06-20T14:47:24.244Z,30.49
2019-06-20T14:48:25.351Z,30.98
2019-06-20T14:49:24.403Z,31.53
2019-06-20T14:50:24.363Z,31.91
2019-06-20T14:52:27.091Z,31.89
2019-06-20T14:55:07.317Z,31.39
2019-06-20T14:56:07.137Z,30.42
2019-06-20T14:57:07.197Z,29.55
2019-06-20T14:59:07.263Z,27.78
2019-06-20T15:00:07.308Z,27.51
2019-06-20T15:01:07.358Z,27.02
2019-06-20T15:02:07.394Z,26.55
2019-06-20T15:03:07.437Z,25.88
2019-06-20T15:04:07.480Z,25.77
2019-06-20T15:05:07.525Z,25.61
2019-06-20T15:07:05.159Z,25.62
2019-06-20T15:08:05.202Z,25.38
2019-06-20T15:09:06.143Z,25.99
2019-06-20T15:10:05.286Z,27.47
2019-06-20T15:11:05.330Z,28.98
2019-06-20T15:12:05.371Z,29.97
2019-06-20T15:13:05.746Z,30.94
2019-06-20T15:14:05.653Z,31.44
2019-06-20T15:15:05.727Z,32.77
2019-06-20T15:16:05.559Z,33.44
2019-06-20T15:17:50.268Z,34.05
2019-06-20T15:19:49.387Z,34.42
2019-06-20T15:20:48.721Z,34.10
2019-06-20T15:21:48.927Z,34.77
2019-06-20T15:22:49.274Z,34.66
2019-06-20T15:23:49.503Z,34.84
2019-06-20T15:25:49.131Z,34.02
2019-06-20T15:26:49.445Z,33.97
2019-06-20T15:29:33.807Z,32.81
2019-06-20T15:30:33.801Z,31.17
2019-06-20T15:31:33.847Z,30.11
2019-06-20T15:32:33.895Z,28.64
2019-06-20T15:33:34.281Z,28.22
2019-06-20T15:34:34.188Z,27.90
2019-06-20T15:35:34.030Z,27.67
2019-06-20T15:36:34.075Z,27.60
2019-06-20T15:37:34.121Z,27.79
2019-06-20T15:38:34.164Z,28.12
2019-06-20T15:39:34.209Z,28.54
2019-06-20T15:40:34.254Z,27.84
2019-06-20T15:41:34.299Z,27.43
2019-06-20T15:42:34.341Z,26.99
2019-06-20T15:43:34.394Z,26.88
2019-06-20T15:44:34.453Z,26.70
2019-06-20T15:45:34.472Z,26.63
2019-06-20T15:46:34.516Z,26.52
2019-06-20T15:47:34.581Z,26.32
2019-06-20T15:48:34.604Z,27.41
2019-06-20T15:49:34.678Z,28.66
2019-06-20T15:51:35.665Z,27.54
2019-06-20T15:52:34.795Z,26.91
2019-06-20T15:53:34.813Z,26.57
2019-06-20T15:54:34.878Z,26.05
2019-06-20T15:55:34.897Z,25.79
2019-06-20T15:56:34.961Z,25.45
2019-06-20T15:57:35.290Z,25.23
2019-06-20T15:59:35.400Z,24.53
2019-06-20T16:00:35.119Z,24.25
2019-06-20T16:01:35.144Z,24.15
2019-06-20T16:02:35.194Z,23.95
2019-06-20T16:04:22.839Z,23.73
2019-06-20T16:06:22.873Z,23.68
2019-06-20T16:07:22.939Z,23.69
2019-06-20T16:08:22.957Z,23.57
2019-06-20T16:09:24.206Z,23.51
2019-06-20T16:10:23.031Z,23.38
2019-06-20T16:11:23.071Z,23.23
2019-06-20T16:12:23.111Z,22.98
2019-06-20T16:13:23.152Z,22.94
2019-06-20T16:14:23.189Z,22.68
2019-06-20T16:15:23.238Z,22.40
2019-06-20T16:16:23.270Z,21.68
2019-06-20T16:17:23.307Z,20.17
2019-06-20T16:18:23.370Z,18.88
2019-06-20T16:19:23.616Z,17.81
2019-06-20T16:20:23.478Z,17.55
2019-06-20T16:21:23.460Z,17.51
2019-06-20T16:22:23.496Z,17.46
2019-06-20T16:23:23.533Z,17.75
2019-06-20T16:24:23.578Z,17.97
2019-06-20T16:25:23.607Z,17.97
2019-06-20T16:26:23.647Z,17.99
2019-06-20T16:27:23.683Z,17.87
2019-06-20T16:28:23.715Z,17.97
2019-06-20T16:30:06.302Z,18.55
2019-06-20T16:31:13.259Z,18.65
2019-06-20T16:32:06.371Z,19.04
2019-06-20T16:33:06.406Z,18.80
2019-06-20T16:34:06.442Z,18.57
2019-06-20T16:35:06.480Z,18.52
2019-06-20T16:38:09.201Z,18.32
2019-06-20T16:39:06.616Z,18.32
2019-06-20T16:40:06.650Z,18.42
2019-06-20T16:41:06.684Z,18.44
2019-06-20T16:42:06.720Z,18.47
2019-06-20T16:43:06.754Z,18.50
2019-06-20T16:44:06.790Z,19.39
2019-06-20T16:45:06.825Z,20.06
2019-06-20T16:46:06.860Z,19.99
2019-06-20T16:47:06.894Z,19.81
2019-06-20T16:48:06.929Z,19.74
2019-06-20T16:49:06.963Z,20.24
2019-06-20T16:50:06.997Z,20.01
2019-06-20T16:51:07.033Z,19.74
2019-06-20T16:52:07.074Z,19.63
2019-06-20T16:53:07.106Z,19.44
2019-06-20T16:54:07.140Z,19.26
2019-06-20T16:55:07.176Z,19.19
2019-06-20T16:56:07.210Z,19.25
2019-06-20T16:57:07.246Z,19.13
2019-06-20T16:58:07.380Z,19.14
2019-06-20T16:59:07.317Z,19.22
2019-06-20T17:00:07.350Z,19.26
2019-06-20T17:01:07.389Z,19.29
2019-06-20T17:02:07.462Z,19.18
2019-06-20T17:03:07.458Z,19.25
2019-06-20T17:04:07.495Z,19.18
2019-06-20T17:05:07.526Z,19.40
2019-06-20T17:06:07.564Z,19.33
2019-06-20T17:07:07.597Z,19.50
2019-06-20T17:08:07.638Z,19.43
2019-06-20T17:09:07.671Z,19.50
2019-06-20T17:10:07.707Z,19.50
2019-06-20T17:11:07.739Z,19.37
2019-06-20T17:12:11.046Z,19.40
2019-06-20T17:13:07.807Z,19.37
2019-06-20T17:14:07.846Z,19.29
2019-06-20T17:15:07.948Z,19.28
2019-06-20T17:16:07.913Z,19.23
2019-06-20T17:17:07.993Z,19.14
2019-06-20T17:18:07.984Z,19.14
2019-06-20T17:19:08.028Z,19.07
2019-06-20T17:20:08.054Z,18.91
2019-06-20T17:21:08.087Z,19.00
2019-06-20T17:22:08.125Z,19.06
2019-06-20T17:23:08.163Z,19.04
2019-06-20T17:25:08.277Z,19.18
2019-06-20T17:26:08.262Z,19.11
2019-06-20T17:27:08.299Z,19.19
2019-06-20T17:28:08.334Z,19.29
2019-06-20T17:29:08.366Z,19.29
2019-06-20T17:30:08.402Z,19.21
2019-06-20T17:31:08.437Z,19.25
2019-06-20T17:32:08.470Z,19.16
2019-06-20T17:33:08.505Z,19.23
2019-06-20T17:34:08.541Z,19.23
2019-06-20T17:35:08.600Z,19.31
2019-06-20T17:36:17.930Z,19.37
2019-06-20T17:37:08.973Z,19.41
2019-06-20T17:38:08.680Z,19.44
2019-06-20T17:39:08.737Z,19.48
2019-06-20T17:42:44.659Z,19.40
2019-06-20T17:43:44.691Z,19.28
2019-06-20T17:44:44.725Z,19.33
2019-06-20T17:45:44.760Z,19.32
2019-06-20T17:46:44.795Z,19.26
2019-06-20T17:47:44.833Z,19.39
2019-06-20T17:49:44.897Z,19.43
2019-06-20T17:50:44.931Z,19.31
2019-06-20T17:51:44.967Z,19.28
2019-06-20T17:52:44.999Z,19.32
2019-06-20T17:53:45.039Z,19.22
2019-06-20T17:54:45.072Z,19.13
2019-06-20T17:55:45.101Z,19.26
2019-06-20T17:56:45.137Z,19.28
2019-06-20T17:57:45.204Z,19.21
2019-06-20T17:58:45.223Z,19.26
2019-06-20T17:59:45.268Z,19.23
2019-06-20T18:00:45.326Z,19.28
2019-06-20T18:01:45.332Z,19.29
2019-06-20T18:02:45.567Z,19.23
2019-06-20T18:03:45.418Z,19.28
2019-06-20T18:04:45.411Z,19.25
2019-06-20T18:05:45.446Z,19.22
2019-06-20T18:06:45.716Z,19.16
2019-06-20T18:07:45.513Z,19.14
2019-06-20T18:08:45.560Z,19.11
2019-06-20T18:09:45.584Z,19.14
2019-06-20T18:10:45.639Z,19.16
2019-06-20T18:11:45.652Z,19.10
2019-06-20T18:12:45.685Z,19.08
2019-06-20T18:13:45.933Z,19.07
2019-06-20T18:14:45.776Z,19.06
2019-06-20T18:15:45.811Z,19.02
2019-06-20T18:16:46.151Z,19.08
2019-06-20T18:17:45.858Z,19.04
2019-06-20T18:19:45.948Z,19.02
2019-06-20T18:20:46.185Z,18.91
2019-06-20T18:21:46.019Z,18.98
2019-06-20T18:22:46.028Z,18.91
2019-06-20T18:23:46.064Z,18.90
2019-06-20T18:25:46.135Z,18.91
2019-06-20T18:26:46.187Z,18.84
2019-06-20T18:27:46.426Z,18.76
2019-06-20T18:28:46.233Z,18.75
2019-06-20T18:29:46.308Z,18.80
2019-06-20T18:30:46.633Z,18.80
2019-06-20T18:31:46.340Z,18.69
2019-06-20T18:32:46.700Z,18.69